Wetterdaten: Woche 30.04.12 - 06.05.12 (KW18)
Datum Zeit Temp. Auen Feucht Auen Luftdruck Regen Richtung Windben
30.04.2012 00:00 13,6 C 66 % 1009,2 hPa 0,0 mm W 3,6 km/h (1 Bft)
30.04.2012 01:00 13,9 C 63 % 1009,8 hPa 0,0 mm W 4,7 km/h (1 Bft)
30.04.2012 02:00 13,3 C 65 % 1010,3 hPa 0,0 mm W 4,6 km/h (1 Bft)
30.04.2012 03:00 12,6 C 68 % 1011,0 hPa 0,0 mm W 2,9 km/h (1 Bft)
30.04.2012 04:00 11,6 C 71 % 1011,6 hPa 0,0 mm W 3,4 km/h (1 Bft)
30.04.2012 05:00 11,4 C 73 % 1012,2 hPa 0,0 mm W 3,0 km/h (1 Bft)
30.04.2012 06:00 11,9 C 76 % 1012,5 hPa 0,0 mm W 1,7 km/h (1 Bft)
30.04.2012 07:00 13,8 C 74 % 1012,6 hPa 0,0 mm W 1,3 km/h (1 Bft)
30.04.2012 08:00 17,9 C 61 % 1012,3 hPa 0,0 mm W 4,6 km/h (1 Bft)
30.04.2012 09:00 19,0 C 57 % 1012,3 hPa 0,0 mm SO 3,4 km/h (1 Bft)
30.04.2012 10:00 19,8 C 57 % 1012,2 hPa 0,0 mm S-SO 3,2 km/h (1 Bft)
30.04.2012 11:00 21,6 C 56 % 1011,5 hPa 0,0 mm SO 8,1 km/h (2 Bft)
30.04.2012 12:00 22,3 C 56 % 1010,9 hPa 0,0 mm O-SO 11,2 km/h (2 Bft)
30.04.2012 13:00 22,4 C 56 % 1010,5 hPa 0,0 mm O 12,2 km/h (2 Bft)
30.04.2012 14:00 22,8 C 52 % 1009,9 hPa 0,0 mm O-SO 11,4 km/h (2 Bft)
30.04.2012 15:00 23,0 C 43 % 1009,4 hPa 0,0 mm SO 11,2 km/h (2 Bft)
30.04.2012 16:00 23,1 C 39 % 1009,0 hPa 0,0 mm SO 14,2 km/h (3 Bft)
30.04.2012 17:00 23,1 C 38 % 1008,8 hPa 0,0 mm O-SO 15,2 km/h (3 Bft)
30.04.2012 18:00 22,4 C 38 % 1008,7 hPa 0,0 mm O-SO 13,1 km/h (3 Bft)
30.04.2012 19:00 21,2 C 39 % 1008,8 hPa 0,0 mm SO 9,4 km/h (2 Bft)
30.04.2012 20:00 19,7 C 42 % 1009,1 hPa 0,0 mm SO 4,1 km/h (1 Bft)
30.04.2012 21:00 18,8 C 43 % 1009,4 hPa 0,0 mm O-SO 5,5 km/h (1 Bft)
30.04.2012 22:00 17,1 C 47 % 1009,1 hPa 0,0 mm W 3,2 km/h (1 Bft)
30.04.2012 23:00 15,0 C 54 % 1008,9 hPa 0,0 mm W-SW 2,9 km/h (1 Bft)
01.05.2012 00:00 13,4 C 59 % 1009,2 hPa 0,0 mm W 3,5 km/h (1 Bft)
01.05.2012 01:00 12,5 C 63 % 1009,2 hPa 0,0 mm W 3,6 km/h (1 Bft)
01.05.2012 02:00 11,1 C 69 % 1009,1 hPa 0,0 mm W 3,8 km/h (1 Bft)
01.05.2012 03:00 10,8 C 71 % 1009,4 hPa 0,0 mm W 2,8 km/h (1 Bft)
01.05.2012 04:00 9,7 C 76 % 1009,8 hPa 0,0 mm W 2,2 km/h (1 Bft)
01.05.2012 05:00 9,4 C 77 % 1010,2 hPa 0,0 mm W 3,4 km/h (1 Bft)
01.05.2012 06:00 10,4 C 75 % 1011,1 hPa 0,0 mm W 3,9 km/h (1 Bft)
01.05.2012 07:00 14,8 C 65 % 1012,0 hPa 0,0 mm W 6,1 km/h (2 Bft)
01.05.2012 08:00 18,7 C 50 % 1012,8 hPa 0,0 mm W 12,1 km/h (2 Bft)
01.05.2012 09:00 19,8 C 51 % 1012,9 hPa 0,0 mm W 11,6 km/h (2 Bft)
01.05.2012 10:00 20,9 C 50 % 1013,2 hPa 0,0 mm W 10,9 km/h (2 Bft)
01.05.2012 11:00 22,1 C 50 % 1013,2 hPa 0,0 mm W 11,6 km/h (2 Bft)
01.05.2012 12:00 22,9 C 50 % 1012,8 hPa 0,0 mm W 12,5 km/h (3 Bft)
01.05.2012 13:00 23,8 C 51 % 1012,3 hPa 0,0 mm W 11,1 km/h (2 Bft)
01.05.2012 14:00 24,4 C 51 % 1011,6 hPa 0,0 mm W 11,1 km/h (2 Bft)
01.05.2012 15:00 24,6 C 50 % 1011,0 hPa 0,0 mm W 10,1 km/h (2 Bft)
01.05.2012 16:00 23,6 C 51 % 1010,6 hPa 0,0 mm S-SO 7,6 km/h (2 Bft)
01.05.2012 17:00 22,2 C 51 % 1010,4 hPa 0,0 mm O-SO 4,1 km/h (1 Bft)
01.05.2012 18:00 20,6 C 63 % 1010,4 hPa 0,0 mm S-SO 0,3 km/h (0 Bft)
01.05.2012 19:00 19,4 C 70 % 1010,6 hPa 0,0 mm W 0,6 km/h (0 Bft)
01.05.2012 20:00 17,1 C 74 % 1010,9 hPa 0,0 mm W 1,1 km/h (0 Bft)
01.05.2012 21:00 17,1 C 77 % 1011,6 hPa 0,2 mm W 4,8 km/h (1 Bft)
01.05.2012 22:00 16,3 C 84 % 1011,9 hPa 0,0 mm W 5,4 km/h (1 Bft)
01.05.2012 23:00 16,6 C 73 % 1013,3 hPa 2,6 mm SO 11,1 km/h (2 Bft)
02.05.2012 00:00 14,1 C 85 % 1012,3 hPa 0,6 mm W 5,3 km/h (1 Bft)
02.05.2012 01:00 12,6 C 91 % 1011,5 hPa 0,0 mm S 2,4 km/h (1 Bft)
02.05.2012 02:00 11,1 C 94 % 1011,1 hPa 0,0 mm SW 0,9 km/h (0 Bft)
02.05.2012 03:00 9,6 C 95 % 1010,8 hPa 0,0 mm S 0,7 km/h (0 Bft)
02.05.2012 04:00 9,2 C 96 % 1010,4 hPa 0,0 mm S-SW 0,0 km/h (0 Bft)
02.05.2012 05:00 9,1 C 97 % 1010,0 hPa 0,0 mm O-NO 0,9 km/h (0 Bft)
02.05.2012 06:00 9,9 C 97 % 1009,9 hPa 0,0 mm O-NO 0,7 km/h (0 Bft)
02.05.2012 07:00 12,1 C 93 % 1009,8 hPa 0,0 mm O 2,3 km/h (1 Bft)
02.05.2012 08:00 13,7 C 88 % 1009,7 hPa 0,0 mm O-SO 1,2 km/h (1 Bft)
02.05.2012 09:00 16,8 C 79 % 1009,6 hPa 0,0 mm O-SO 6,7 km/h (2 Bft)
02.05.2012 10:00 19,5 C 67 % 1009,5 hPa 0,0 mm O-NO 10,6 km/h (2 Bft)
02.05.2012 11:00 21,8 C 56 % 1009,2 hPa 0,0 mm O-NO 10,6 km/h (2 Bft)
02.05.2012 12:00 23,0 C 46 % 1008,8 hPa 0,0 mm O-NO 10,0 km/h (2 Bft)
02.05.2012 13:00 24,8 C 38 % 1008,4 hPa 0,0 mm O-SO 8,8 km/h (2 Bft)
02.05.2012 14:00 25,1 C 34 % 1008,0 hPa 0,0 mm S-SO 9,0 km/h (2 Bft)
02.05.2012 15:00 25,1 C 33 % 1007,4 hPa 0,0 mm O 9,2 km/h (2 Bft)
02.05.2012 16:00 24,1 C 35 % 1006,8 hPa 0,0 mm SO 4,8 km/h (1 Bft)
02.05.2012 17:00 23,4 C 37 % 1006,4 hPa 0,0 mm S-SO 4,4 km/h (1 Bft)
02.05.2012 18:00 24,0 C 34 % 1006,2 hPa 0,0 mm W 4,6 km/h (1 Bft)
02.05.2012 19:00 21,9 C 38 % 1006,4 hPa 0,0 mm W 3,9 km/h (1 Bft)
02.05.2012 20:00 18,2 C 54 % 1007,1 hPa 0,0 mm W 3,8 km/h (1 Bft)
02.05.2012 21:00 18,5 C 57 % 1008,2 hPa 0,0 mm W 7,6 km/h (2 Bft)
02.05.2012 22:00 17,7 C 59 % 1008,7 hPa 0,0 mm W 8,5 km/h (2 Bft)
02.05.2012 23:00 16,6 C 63 % 1009,4 hPa 0,0 mm W 10,2 km/h (2 Bft)
03.05.2012 00:00 16,2 C 63 % 1010,2 hPa 0,0 mm W 14,0 km/h (3 Bft)
03.05.2012 01:00 15,7 C 65 % 1010,3 hPa 0,0 mm W 12,2 km/h (2 Bft)
03.05.2012 02:00 14,9 C 67 % 1010,4 hPa 0,0 mm W 12,6 km/h (3 Bft)
03.05.2012 03:00 13,8 C 70 % 1010,7 hPa 0,0 mm W 12,1 km/h (2 Bft)
03.05.2012 04:00 13,0 C 73 % 1010,8 hPa 0,0 mm W 10,6 km/h (2 Bft)
03.05.2012 05:00 12,6 C 76 % 1010,9 hPa 0,0 mm W 7,5 km/h (2 Bft)
03.05.2012 06:00 12,4 C 78 % 1011,1 hPa 0,0 mm W 5,1 km/h (1 Bft)
03.05.2012 07:00 12,4 C 78 % 1011,3 hPa 0,0 mm W 8,3 km/h (2 Bft)
03.05.2012 08:00 12,6 C 75 % 1011,5 hPa 0,0 mm W 8,8 km/h (2 Bft)
03.05.2012 09:00 12,6 C 74 % 1011,6 hPa 0,0 mm W 7,0 km/h (2 Bft)
03.05.2012 10:00 13,9 C 68 % 1011,5 hPa 0,0 mm W 6,3 km/h (2 Bft)
03.05.2012 11:00 16,0 C 56 % 1011,1 hPa 0,0 mm W 9,9 km/h (2 Bft)
03.05.2012 12:00 17,0 C 52 % 1010,5 hPa 0,0 mm W 9,1 km/h (2 Bft)
03.05.2012 13:00 17,9 C 49 % 1009,8 hPa 0,0 mm W 10,6 km/h (2 Bft)
03.05.2012 14:00 18,5 C 49 % 1009,2 hPa 0,0 mm W-SW 8,5 km/h (2 Bft)
03.05.2012 15:00 18,7 C 49 % 1008,6 hPa 0,0 mm W 6,9 km/h (2 Bft)
03.05.2012 16:00 18,3 C 53 % 1007,9 hPa 0,0 mm W 5,6 km/h (1 Bft)
03.05.2012 17:00 18,2 C 54 % 1007,3 hPa 0,0 mm W 4,5 km/h (1 Bft)
03.05.2012 18:00 18,4 C 53 % 1007,0 hPa 0,0 mm W 4,7 km/h (1 Bft)
03.05.2012 19:00 17,6 C 55 % 1006,9 hPa 0,0 mm W 7,9 km/h (2 Bft)
03.05.2012 20:00 14,7 C 69 % 1007,1 hPa 0,0 mm W 1,6 km/h (1 Bft)
03.05.2012 21:00 13,7 C 76 % 1007,8 hPa 0,0 mm W 0,7 km/h (0 Bft)
03.05.2012 22:00 13,4 C 79 % 1007,9 hPa 0,0 mm W 1,2 km/h (1 Bft)
03.05.2012 23:00 12,9 C 81 % 1007,6 hPa 0,0 mm W 1,9 km/h (1 Bft)
04.05.2012 00:00 12,1 C 84 % 1007,5 hPa 0,0 mm W 1,7 km/h (1 Bft)
04.05.2012 01:00 11,1 C 86 % 1007,0 hPa 0,0 mm W 2,5 km/h (1 Bft)
04.05.2012 02:00 10,5 C 87 % 1006,7 hPa 0,0 mm W 3,3 km/h (1 Bft)
04.05.2012 03:00 9,9 C 88 % 1006,6 hPa 0,0 mm W 2,8 km/h (1 Bft)
04.05.2012 04:00 9,3 C 90 % 1006,5 hPa 0,0 mm W 2,9 km/h (1 Bft)
04.05.2012 05:00 9,7 C 89 % 1006,4 hPa 0,0 mm W 4,5 km/h (1 Bft)
04.05.2012 06:00 10,4 C 88 % 1006,4 hPa 0,0 mm W 2,3 km/h (1 Bft)
04.05.2012 07:00 11,9 C 87 % 1006,3 hPa 0,0 mm W 1,1 km/h (0 Bft)
04.05.2012 08:00 13,2 C 83 % 1006,1 hPa 0,0 mm W 1,3 km/h (1 Bft)
04.05.2012 09:00 15,5 C 72 % 1006,0 hPa 0,0 mm W 8,3 km/h (2 Bft)
04.05.2012 10:00 16,0 C 69 % 1005,8 hPa 0,0 mm W 5,1 km/h (1 Bft)
04.05.2012 11:00 20,1 C 51 % 1005,4 hPa 0,0 mm W-SW 11,8 km/h (2 Bft)
04.05.2012 12:00 20,6 C 47 % 1005,0 hPa 0,0 mm W 12,6 km/h (3 Bft)
04.05.2012 13:00 21,3 C 46 % 1004,4 hPa 0,0 mm W-SW 11,2 km/h (2 Bft)
04.05.2012 14:00 20,9 C 44 % 1003,9 hPa 0,0 mm W 10,3 km/h (2 Bft)
04.05.2012 15:00 20,4 C 45 % 1003,1 hPa 0,0 mm S-SO 9,5 km/h (2 Bft)
04.05.2012 16:00 21,2 C 41 % 1002,5 hPa 0,0 mm W 9,7 km/h (2 Bft)
04.05.2012 17:00 21,3 C 41 % 1002,1 hPa 0,0 mm W 9,4 km/h (2 Bft)
04.05.2012 18:00 19,6 C 45 % 1001,8 hPa 0,0 mm S-SO 5,3 km/h (1 Bft)
04.05.2012 19:00 18,1 C 52 % 1001,9 hPa 0,0 mm O-SO 1,3 km/h (1 Bft)
04.05.2012 20:00 14,4 C 68 % 1002,1 hPa 0,0 mm O-SO 0,4 km/h (0 Bft)
04.05.2012 21:00 11,6 C 76 % 1002,4 hPa 0,0 mm W-SW 0,7 km/h (0 Bft)
04.05.2012 22:00 10,1 C 81 % 1002,4 hPa 0,0 mm W 0,9 km/h (0 Bft)
04.05.2012 23:00 9,3 C 83 % 1002,5 hPa 0,0 mm W 1,2 km/h (1 Bft)
05.05.2012 00:00 8,4 C 85 % 1002,5 hPa 0,0 mm SW 0,0 km/h (0 Bft)
05.05.2012 01:00 7,4 C 88 % 1002,2 hPa 0,0 mm W-SW 0,4 km/h (0 Bft)
05.05.2012 02:00 6,9 C 89 % 1001,9 hPa 0,0 mm W 0,4 km/h (0 Bft)
05.05.2012 03:00 6,5 C 90 % 1001,8 hPa 0,0 mm W 0,0 km/h (0 Bft)
05.05.2012 04:00 6,0 C 91 % 1001,5 hPa 0,0 mm W 0,4 km/h (0 Bft)
05.05.2012 05:00 5,8 C 92 % 1001,5 hPa 0,0 mm W 0,9 km/h (0 Bft)
05.05.2012 06:00 7,3 C 91 % 1001,6 hPa 0,0 mm W 0,3 km/h (0 Bft)
05.05.2012 07:00 11,2 C 84 % 1001,6 hPa 0,0 mm W 4,3 km/h (1 Bft)
05.05.2012 08:00 14,9 C 66 % 1002,3 hPa 0,0 mm W 10,6 km/h (2 Bft)
05.05.2012 09:00 16,8 C 59 % 1002,5 hPa 0,0 mm W-SW 13,6 km/h (3 Bft)
05.05.2012 10:00 17,9 C 57 % 1002,5 hPa 0,0 mm W 15,0 km/h (3 Bft)
05.05.2012 11:00 18,4 C 56 % 1002,8 hPa 0,0 mm W 15,8 km/h (3 Bft)
05.05.2012 12:00 18,3 C 57 % 1002,7 hPa 0,0 mm W 17,3 km/h (3 Bft)
05.05.2012 13:00 19,3 C 55 % 1002,5 hPa 0,0 mm W-SW 17,8 km/h (3 Bft)
05.05.2012 14:00 18,3 C 57 % 1002,4 hPa 0,0 mm W 14,6 km/h (3 Bft)
05.05.2012 15:00 14,3 C 73 % 1003,8 hPa 1,8 mm W 19,7 km/h (3 Bft)
05.05.2012 16:00 12,0 C 88 % 1004,5 hPa 0,0 mm W 8,4 km/h (2 Bft)
05.05.2012 17:00 14,9 C 74 % 1004,3 hPa 0,0 mm W 9,3 km/h (2 Bft)
05.05.2012 18:00 15,3 C 67 % 1004,3 hPa 0,0 mm W-SW 9,0 km/h (2 Bft)
05.05.2012 19:00 13,6 C 75 % 1005,0 hPa 0,0 mm W 6,6 km/h (2 Bft)
05.05.2012 20:00 12,4 C 80 % 1005,8 hPa 0,4 mm W 10,1 km/h (2 Bft)
05.05.2012 21:00 10,8 C 87 % 1006,8 hPa 5,2 mm W 8,8 km/h (2 Bft)
05.05.2012 22:00 10,1 C 88 % 1006,5 hPa 0,2 mm W-SW 5,9 km/h (2 Bft)
05.05.2012 23:00 8,9 C 92 % 1006,2 hPa 0,0 mm W 6,4 km/h (2 Bft)
06.05.2012 00:00 7,7 C 94 % 1006,4 hPa 0,0 mm W 1,5 km/h (1 Bft)
06.05.2012 01:00 6,8 C 96 % 1006,4 hPa 0,0 mm W 2,0 km/h (1 Bft)
06.05.2012 02:00 6,7 C 96 % 1006,2 hPa 0,0 mm N 0,5 km/h (0 Bft)
06.05.2012 03:00 6,5 C 96 % 1006,1 hPa 0,0 mm W-NW 1,5 km/h (1 Bft)
06.05.2012 04:00 6,3 C 96 % 1005,9 hPa 0,0 mm N 0,4 km/h (0 Bft)
06.05.2012 05:00 5,0 C 96 % 1005,8 hPa 0,0 mm N 0,5 km/h (0 Bft)
06.05.2012 06:00 5,8 C 97 % 1006,0 hPa 0,0 mm W-NW 2,0 km/h (1 Bft)
06.05.2012 07:00 8,6 C 95 % 1006,2 hPa 0,0 mm S 1,2 km/h (1 Bft)
06.05.2012 08:00 11,1 C 90 % 1006,2 hPa 0,0 mm O 4,1 km/h (1 Bft)
06.05.2012 09:00 13,3 C 77 % 1006,4 hPa 0,0 mm O-SO 2,8 km/h (1 Bft)
06.05.2012 10:00 16,1 C 67 % 1006,9 hPa 0,0 mm W 7,8 km/h (2 Bft)
06.05.2012 11:00 17,1 C 62 % 1007,5 hPa 0,0 mm W-SW 15,0 km/h (3 Bft)
06.05.2012 12:00 16,9 C 60 % 1008,0 hPa 0,0 mm W 17,3 km/h (3 Bft)
06.05.2012 13:00 14,4 C 67 % 1008,6 hPa 0,0 mm W-SW 19,2 km/h (3 Bft)
06.05.2012 14:00 12,4 C 77 % 1009,2 hPa 0,8 mm W 12,9 km/h (3 Bft)
06.05.2012 15:00 11,8 C 88 % 1009,5 hPa 1,4 mm W 8,2 km/h (2 Bft)
06.05.2012 16:00 11,8 C 87 % 1009,8 hPa 1,0 mm W 11,5 km/h (2 Bft)
06.05.2012 17:00 10,2 C 90 % 1010,2 hPa 0,4 mm W 10,3 km/h (2 Bft)
06.05.2012 18:00 9,9 C 91 % 1010,5 hPa 0,0 mm W-NW 2,4 km/h (1 Bft)
06.05.2012 19:00 9,3 C 94 % 1010,8 hPa 0,0 mm O-NO 3,5 km/h (1 Bft)
06.05.2012 20:00 9,1 C 95 % 1011,3 hPa 0,0 mm O-SO 1,2 km/h (1 Bft)
06.05.2012 21:00 8,7 C 95 % 1012,0 hPa 0,0 mm W 0,0 km/h (0 Bft)
06.05.2012 22:00 8,1 C 96 % 1012,2 hPa 0,0 mm W 0,3 km/h (0 Bft)
06.05.2012 23:00 7,8 C 96 % 1012,4 hPa 0,0 mm W 0,5 km/h (0 Bft)
Min-Datum _ 06.05.12 02.05.12 05.05.12 - - 30.04.12
_ Min-Zeit 05:50 15:36 04:55 - - 00:20
Minimum _ 4,3 C 26 % 1001,3 hPa - - 0,0 km/h (0 Bft)
Max-Datum _ 02.05.12 02.05.12 01.05.12 05.05.12 - 01.05.12
_ Max-Zeit 14:53 04:41 23:45 21:50 - 23:34
Maximum _ 25,9 C 97 % 1014,0 hPa 5,2 mm - 33,8 km/h
W (5 Bft)
Durchschnitt _ 15,1 C 69 % 1008,1 hPa #14,6 mm W 6,3 km/h (2 Bft)